createdAt,value
2023-02-03T00:15:35.979Z,3.90
2023-02-03T00:24:57.067Z,4.00
2023-02-03T00:27:46.260Z,4.10
2023-02-03T00:30:36.766Z,4.10
2023-02-03T00:33:05.577Z,3.90
2023-02-03T00:35:50.925Z,4.20
2023-02-03T00:38:52.925Z,4.20
2023-02-03T00:47:22.199Z,4.30
2023-02-03T00:52:53.996Z,4.40
2023-02-03T00:57:52.718Z,4.50
2023-02-03T01:00:20.489Z,4.00
2023-02-03T01:02:48.608Z,4.50
2023-02-03T01:05:15.691Z,4.40
2023-02-03T01:10:10.868Z,5.10
2023-02-03T01:12:37.957Z,4.70
2023-02-03T01:17:33.840Z,4.90
2023-02-03T01:22:31.901Z,5.00
2023-02-03T01:27:26.550Z,5.20
2023-02-03T01:29:56.569Z,5.20
2023-02-03T01:32:23.645Z,5.40
2023-02-03T01:34:54.285Z,5.50
2023-02-03T01:37:52.691Z,7.00
2023-02-03T01:43:34.876Z,5.80
2023-02-03T01:46:25.030Z,5.90
2023-02-03T01:49:22.662Z,5.80
2023-02-03T01:51:53.486Z,6.10
2023-02-03T01:54:32.037Z,6.20
2023-02-03T01:57:06.705Z,6.30
2023-02-03T02:00:43.038Z,6.40
2023-02-03T02:02:40.470Z,6.30
2023-02-03T02:05:51.290Z,6.50
2023-02-03T02:11:41.201Z,6.40
2023-02-03T02:14:33.473Z,7.80
2023-02-03T02:20:47.063Z,7.80
2023-02-03T02:23:37.820Z,6.80
2023-02-03T02:26:08.028Z,6.70
2023-02-03T02:29:17.671Z,6.70
2023-02-03T02:32:05.443Z,6.80
2023-02-03T02:34:53.527Z,6.90
2023-02-03T02:37:52.202Z,6.80
2023-02-03T02:40:36.953Z,7.60
2023-02-03T02:43:33.321Z,5.10
2023-02-03T02:46:06.331Z,6.80
2023-02-03T02:48:45.527Z,6.80
2023-02-03T02:51:16.718Z,6.90
2023-02-03T02:54:03.353Z,7.20
2023-02-03T02:56:37.351Z,7.60
2023-02-03T02:59:06.341Z,6.90
2023-02-03T03:04:06.621Z,6.80
2023-02-03T03:07:04.684Z,6.90
2023-02-03T03:09:40.391Z,6.90
2023-02-03T03:12:25.860Z,6.90
2023-02-03T03:15:01.938Z,6.90
2023-02-03T03:17:37.576Z,6.80
2023-02-03T03:20:42.970Z,7.40
2023-02-03T03:23:39.665Z,6.90
2023-02-03T03:26:35.877Z,6.90
2023-02-03T03:29:29.147Z,6.80
2023-02-03T03:32:10.863Z,6.60
2023-02-03T03:34:44.862Z,6.30
2023-02-03T03:37:19.885Z,6.40
2023-02-03T03:39:48.844Z,7.00
2023-02-03T03:42:32.672Z,7.10
2023-02-03T03:45:23.166Z,6.90
2023-02-03T03:48:06.438Z,7.00
2023-02-03T03:50:46.410Z,6.90
2023-02-03T03:53:19.000Z,7.60
2023-02-03T03:55:52.068Z,7.00
2023-02-03T03:58:47.411Z,7.50
2023-02-03T04:01:18.152Z,6.90
2023-02-03T04:03:52.022Z,8.40
2023-02-03T04:11:07.127Z,6.90
2023-02-03T04:13:51.338Z,6.80
2023-02-03T04:16:18.974Z,6.60
2023-02-03T04:18:51.378Z,7.10
2023-02-03T04:21:19.465Z,6.80
2023-02-03T04:26:28.849Z,7.50
2023-02-03T04:29:01.569Z,8.50
2023-02-03T04:31:36.972Z,6.90
2023-02-03T04:34:07.588Z,6.90
2023-02-03T04:36:34.976Z,8.40
2023-02-03T04:39:05.248Z,7.00
2023-02-03T04:41:35.719Z,7.00
2023-02-03T04:44:07.759Z,6.90
2023-02-03T04:46:40.393Z,7.00
2023-02-03T04:51:44.230Z,7.00
2023-02-03T04:54:15.333Z,7.00
2023-02-03T04:56:50.386Z,6.90
2023-02-03T04:59:20.309Z,7.20
2023-02-03T05:01:48.276Z,7.00
2023-02-03T05:04:15.920Z,8.60
2023-02-03T05:06:50.999Z,5.30
2023-02-03T05:11:52.558Z,7.00
2023-02-03T05:14:23.034Z,7.00
2023-02-03T05:19:17.889Z,7.10
2023-02-03T05:21:45.073Z,6.50
2023-02-03T05:24:15.805Z,8.20
2023-02-03T05:29:15.198Z,7.10
2023-02-03T05:31:42.467Z,7.00
2023-02-03T05:34:12.210Z,8.70
2023-02-03T05:36:47.276Z,7.10
2023-02-03T05:39:22.261Z,8.30
2023-02-03T05:42:01.904Z,7.10
2023-02-03T05:44:54.328Z,7.10
2023-02-03T05:47:33.975Z,6.40
2023-02-03T05:50:07.360Z,7.70
2023-02-03T05:52:47.805Z,7.10
2023-02-03T05:55:27.807Z,7.20
2023-02-03T05:58:03.006Z,7.30
2023-02-03T06:03:05.165Z,6.00
2023-02-03T06:05:52.671Z,8.70
2023-02-03T06:11:55.767Z,7.60
2023-02-03T06:14:28.968Z,7.20
2023-02-03T06:16:57.523Z,7.30
2023-02-03T06:19:25.028Z,11.20
2023-02-03T06:21:55.948Z,6.70
2023-02-03T06:29:23.040Z,7.30
2023-02-03T06:31:51.787Z,8.80
2023-02-03T06:34:19.087Z,8.60
2023-02-03T06:36:49.426Z,8.60
2023-02-03T06:41:48.206Z,7.30
2023-02-03T06:44:21.111Z,7.40
2023-02-03T06:46:51.427Z,7.40
2023-02-03T06:49:19.080Z,7.60
2023-02-03T06:51:56.391Z,9.00
2023-02-03T06:54:25.835Z,7.40
2023-02-03T06:56:52.978Z,7.30
2023-02-03T06:59:19.917Z,8.20
2023-02-03T07:01:49.305Z,6.20
2023-02-03T07:04:16.315Z,7.40
2023-02-03T07:06:49.234Z,7.10
2023-02-03T07:12:01.227Z,8.10
2023-02-03T07:14:28.345Z,7.30
2023-02-03T07:16:57.993Z,7.30
2023-02-03T07:19:25.135Z,8.10
2023-02-03T07:21:52.287Z,5.70
2023-02-03T07:24:19.633Z,7.50
2023-02-03T07:26:47.077Z,7.20
2023-02-03T07:29:14.121Z,7.20
2023-02-03T07:31:41.722Z,8.10
2023-02-03T07:34:09.047Z,7.20
2023-02-03T07:36:36.092Z,8.50
2023-02-03T07:39:03.348Z,7.20
2023-02-03T07:41:30.453Z,7.10
2023-02-03T07:43:57.668Z,6.60
2023-02-03T07:46:24.856Z,7.10
2023-02-03T07:48:51.959Z,8.50
2023-02-03T07:51:19.125Z,7.00
2023-02-03T07:53:50.141Z,7.10
2023-02-03T07:58:44.784Z,7.20
2023-02-03T08:01:14.054Z,7.20
2023-02-03T08:03:42.105Z,7.20
2023-02-03T08:18:54.398Z,7.30
2023-02-03T08:21:25.368Z,7.00
2023-02-03T08:24:30.569Z,8.80
2023-02-03T08:31:29.702Z,7.20
2023-02-03T08:33:58.480Z,8.60
2023-02-03T08:41:20.802Z,7.20
2023-02-03T08:43:47.949Z,8.30
2023-02-03T08:46:15.102Z,6.80
2023-02-03T08:48:42.348Z,8.30
2023-02-03T08:51:14.476Z,7.30
2023-02-03T08:53:41.493Z,7.20
2023-02-03T08:56:10.364Z,8.20
2023-02-03T08:58:38.688Z,7.50
2023-02-03T09:01:11.772Z,7.30
2023-02-03T09:03:39.744Z,8.20
2023-02-03T09:06:08.508Z,7.40
2023-02-03T09:08:35.669Z,7.30
2023-02-03T09:11:02.763Z,7.40
2023-02-03T09:13:33.018Z,7.50
2023-02-03T09:16:01.054Z,7.60
2023-02-03T09:18:28.293Z,7.40
2023-02-03T09:21:02.169Z,8.90
2023-02-03T09:26:01.382Z,7.70
2023-02-03T09:28:28.580Z,7.80
2023-02-03T09:31:01.073Z,9.20
2023-02-03T09:33:28.721Z,7.10
2023-02-03T09:35:57.304Z,8.70
2023-02-03T09:38:25.524Z,7.60
2023-02-03T09:41:09.540Z,7.60
2023-02-03T09:44:18.612Z,8.60
2023-02-03T09:46:55.084Z,7.50
2023-02-03T09:49:24.158Z,7.40
2023-02-03T09:51:59.383Z,7.40
2023-02-03T09:54:54.906Z,7.70
2023-02-03T09:57:25.766Z,7.30
2023-02-03T09:59:54.688Z,8.60
2023-02-03T10:02:26.319Z,7.20
2023-02-03T10:05:15.864Z,7.10
2023-02-03T10:08:20.526Z,7.20
2023-02-03T10:11:10.948Z,8.10
2023-02-03T10:13:44.164Z,5.60
2023-02-03T10:16:20.367Z,7.70
2023-02-03T10:18:54.119Z,7.30
2023-02-03T10:21:40.044Z,7.30
2023-02-03T10:24:15.462Z,7.60
2023-02-03T10:26:43.059Z,7.50
2023-02-03T10:29:38.127Z,8.80
2023-02-03T10:32:13.183Z,7.60
2023-02-03T10:34:45.163Z,8.80
2023-02-03T10:37:49.000Z,8.90
2023-02-03T10:40:17.527Z,8.30
2023-02-03T10:43:06.601Z,9.50
2023-02-03T10:45:38.441Z,9.10
2023-02-03T10:48:11.332Z,9.90
2023-02-03T10:50:44.354Z,8.40
2023-02-03T10:53:25.367Z,7.60
2023-02-03T10:56:09.327Z,7.20
2023-02-03T10:58:38.429Z,8.40
2023-02-03T11:01:19.083Z,9.10
2023-02-03T11:04:03.177Z,8.50
2023-02-03T11:06:32.261Z,8.50
2023-02-03T11:09:00.278Z,8.50
2023-02-03T11:11:34.046Z,8.50
2023-02-03T11:14:04.289Z,8.10
2023-02-03T11:16:33.220Z,9.60
2023-02-03T11:19:17.680Z,8.40
2023-02-03T11:21:56.811Z,8.40
2023-02-03T11:24:41.393Z,8.70
2023-02-03T11:27:19.703Z,8.30
2023-02-03T11:29:50.458Z,9.10
2023-02-03T11:32:43.987Z,8.10
2023-02-03T11:35:23.823Z,8.20
2023-02-03T11:37:57.102Z,8.10
2023-02-03T11:40:34.483Z,9.00
2023-02-03T11:43:03.780Z,8.10
2023-02-03T11:45:47.550Z,6.90
2023-02-03T11:48:21.962Z,8.40
2023-02-03T11:51:06.590Z,9.10
2023-02-03T11:53:55.180Z,8.20
2023-02-03T11:56:23.688Z,8.20
2023-02-03T11:58:56.238Z,7.90
2023-02-03T12:02:02.653Z,7.80
2023-02-03T12:04:47.034Z,7.70
2023-02-03T12:07:58.165Z,8.50
2023-02-03T12:10:41.564Z,6.30
2023-02-03T12:13:23.609Z,8.70
2023-02-03T12:15:59.239Z,4.90
2023-02-03T12:18:48.129Z,7.90
2023-02-03T12:21:47.515Z,7.30
2023-02-03T12:24:26.503Z,7.70
2023-02-03T12:27:30.149Z,7.70
2023-02-03T12:30:20.217Z,7.60
2023-02-03T12:32:54.018Z,7.60
2023-02-03T12:35:31.716Z,7.60
2023-02-03T12:40:44.679Z,7.60
2023-02-03T12:43:17.788Z,7.60
2023-02-03T12:46:00.976Z,7.60
2023-02-03T12:48:49.368Z,7.60
2023-02-03T12:51:34.771Z,7.70
2023-02-03T12:54:29.690Z,7.50
2023-02-03T12:57:01.013Z,7.50
2023-02-03T12:59:33.613Z,7.40
2023-02-03T13:02:10.002Z,7.40
2023-02-03T13:04:55.986Z,5.90
2023-02-03T13:07:52.091Z,7.40
2023-02-03T13:10:55.687Z,7.40
2023-02-03T13:14:00.096Z,7.40
2023-02-03T13:16:34.085Z,7.40
2023-02-03T13:19:06.781Z,9.50
2023-02-03T13:21:33.827Z,7.30
2023-02-03T13:24:04.362Z,7.60
2023-02-03T13:26:55.527Z,6.70
2023-02-03T13:29:49.363Z,7.40
2023-02-03T13:32:37.703Z,8.40
2023-02-03T13:35:12.893Z,7.40
2023-02-03T13:38:27.198Z,8.40
2023-02-03T13:41:05.199Z,7.40
2023-02-03T13:43:38.910Z,7.40
2023-02-03T13:46:23.387Z,7.40
2023-02-03T13:48:52.439Z,7.10
2023-02-03T13:51:26.228Z,7.50
2023-02-03T13:54:00.980Z,5.80
2023-02-03T13:56:28.667Z,8.40
2023-02-03T13:59:15.142Z,7.50
2023-02-03T14:01:43.048Z,6.40
2023-02-03T14:04:25.147Z,7.50
2023-02-03T14:06:55.145Z,7.60
2023-02-03T14:09:31.750Z,8.60
2023-02-03T14:12:19.598Z,7.90
2023-02-03T14:15:04.505Z,7.30
2023-02-03T14:17:34.845Z,7.60
2023-02-03T14:20:05.402Z,7.60
2023-02-03T14:22:32.840Z,7.50
2023-02-03T14:25:06.574Z,7.70
2023-02-03T14:27:34.024Z,7.20
2023-02-03T14:30:10.545Z,7.50
2023-02-03T14:32:58.132Z,9.00
2023-02-03T14:35:33.242Z,7.60
2023-02-03T14:38:06.933Z,7.50
2023-02-03T14:43:14.169Z,7.50
2023-02-03T14:46:08.673Z,7.50
2023-02-03T14:49:13.647Z,7.50
2023-02-03T14:51:46.407Z,7.50
2023-02-03T14:54:47.960Z,7.50
2023-02-03T14:57:30.172Z,7.50
2023-02-03T15:00:11.734Z,7.50
2023-02-03T15:03:12.020Z,7.10
2023-02-03T15:05:47.651Z,7.50
2023-02-03T15:08:35.914Z,7.50
2023-02-03T15:11:27.007Z,7.70
2023-02-03T15:13:55.999Z,7.40
2023-02-03T15:18:59.281Z,7.40
2023-02-03T15:21:26.951Z,7.40
2023-02-03T15:23:56.712Z,7.40
2023-02-03T15:26:26.195Z,6.80
2023-02-03T15:29:07.178Z,7.40
2023-02-03T15:31:49.856Z,8.10
2023-02-03T15:34:31.433Z,7.20
2023-02-03T15:37:21.060Z,8.20
2023-02-03T15:39:52.777Z,7.10
2023-02-03T15:42:30.038Z,6.90
2023-02-03T15:45:09.184Z,7.40
2023-02-03T15:47:41.376Z,6.80
2023-02-03T15:50:36.487Z,6.80
2023-02-03T15:53:45.279Z,7.80
2023-02-03T15:56:56.966Z,6.70
2023-02-03T15:59:40.849Z,6.60
2023-02-03T16:02:31.774Z,6.50
2023-02-03T16:05:05.897Z,6.50
2023-02-03T16:07:33.785Z,6.20
2023-02-03T16:10:06.643Z,6.30
2023-02-03T16:15:24.076Z,6.50
2023-02-03T16:17:58.400Z,6.30
2023-02-03T16:20:29.321Z,6.70
2023-02-03T16:23:03.553Z,6.50
2023-02-03T16:25:33.650Z,7.10
2023-02-03T16:28:29.861Z,7.70
2023-02-03T16:31:34.280Z,8.00
2023-02-03T16:34:21.452Z,6.60
2023-02-03T16:39:53.020Z,6.60
2023-02-03T16:42:40.021Z,7.10
2023-02-03T16:45:34.087Z,6.70
2023-02-03T16:53:31.600Z,6.70
2023-02-03T16:56:01.167Z,6.60
2023-02-03T16:58:28.537Z,6.70
2023-02-03T17:00:57.826Z,8.30
2023-02-03T17:03:27.364Z,6.70
2023-02-03T17:05:55.530Z,8.10
2023-02-03T17:08:26.470Z,6.70
2023-02-03T17:10:53.994Z,6.70
2023-02-03T17:13:22.533Z,7.50
2023-02-03T17:15:54.485Z,7.70
2023-02-03T17:23:20.534Z,4.60
2023-02-03T17:25:52.237Z,8.10
2023-02-03T17:28:22.043Z,7.40
2023-02-03T17:31:03.894Z,7.00
2023-02-03T17:33:32.729Z,6.80
2023-02-03T17:36:02.683Z,6.80
2023-02-03T17:38:30.695Z,6.80
2023-02-03T17:54:44.805Z,6.80
2023-02-03T17:57:14.672Z,6.80
2023-02-03T17:59:41.956Z,6.70
2023-02-03T18:02:10.342Z,6.70
2023-02-03T18:04:38.395Z,6.50
2023-02-03T18:07:07.886Z,6.50
2023-02-03T18:12:04.168Z,6.90
2023-02-03T18:14:31.550Z,2.60
2023-02-03T18:16:59.047Z,11.30
2023-02-03T18:19:26.460Z,5.60
2023-02-03T18:21:53.953Z,3.70
2023-02-03T18:24:27.915Z,5.70
2023-02-03T18:26:55.812Z,5.50
2023-02-03T18:29:24.403Z,5.30
2023-02-03T18:31:53.974Z,5.40
2023-02-03T18:36:48.614Z,4.50
2023-02-03T18:39:16.518Z,5.00
2023-02-03T18:41:43.828Z,4.70
2023-02-03T18:46:46.038Z,3.00
2023-02-03T18:49:13.554Z,4.40
2023-02-03T18:59:11.568Z,3.90
2023-02-03T19:01:39.201Z,4.60
2023-02-03T19:06:38.509Z,4.60
2023-02-03T19:09:08.326Z,4.90
2023-02-03T19:11:38.062Z,4.40
2023-02-03T19:14:07.727Z,5.10
2023-02-03T19:19:02.438Z,5.30
2023-02-03T19:21:31.778Z,4.50
2023-02-03T19:31:35.937Z,5.60
2023-02-03T19:34:03.722Z,4.40
2023-02-03T19:36:31.349Z,4.40
2023-02-03T19:39:01.047Z,3.40
2023-02-03T19:41:28.202Z,4.20
2023-02-03T19:43:55.562Z,4.40
2023-02-03T19:46:22.668Z,5.10
2023-02-03T19:51:21.123Z,4.30
2023-02-03T19:58:51.976Z,4.10
2023-02-03T20:01:23.476Z,4.10
2023-02-03T20:11:39.941Z,3.70
2023-02-03T20:14:12.492Z,3.80
2023-02-03T20:26:30.722Z,3.80
2023-02-03T20:28:59.888Z,3.80
2023-02-03T20:36:23.673Z,3.60
2023-02-03T20:41:21.724Z,3.40
2023-02-03T20:43:55.232Z,3.90
2023-02-03T20:48:50.571Z,3.80
2023-02-03T20:51:21.002Z,3.90
2023-02-03T20:56:21.522Z,3.10
2023-02-03T21:01:21.543Z,4.00
2023-02-03T21:04:07.851Z,4.00
2023-02-03T21:09:21.003Z,4.00
2023-02-03T21:11:48.421Z,4.90
2023-02-03T21:14:29.418Z,4.00
2023-02-03T21:17:00.768Z,4.20
2023-02-03T21:21:59.560Z,3.90
2023-02-03T21:24:32.951Z,3.30
2023-02-03T21:27:23.505Z,3.90
2023-02-03T21:29:51.899Z,3.40
2023-02-03T21:32:21.803Z,3.80
2023-02-03T21:34:49.767Z,3.90
2023-02-03T21:37:41.348Z,3.60
2023-02-03T21:40:23.989Z,3.90
2023-02-03T21:42:53.474Z,3.70
2023-02-03T21:45:42.389Z,3.80
2023-02-03T21:48:28.179Z,3.70
2023-02-03T21:50:57.349Z,3.80
2023-02-03T21:55:51.784Z,3.70
2023-02-03T21:58:44.590Z,3.70
2023-02-03T22:01:16.464Z,3.50
2023-02-03T22:03:52.149Z,3.20
2023-02-03T22:06:54.469Z,3.10
2023-02-03T22:09:24.894Z,3.60
2023-02-03T22:11:52.904Z,3.80
2023-02-03T22:14:23.652Z,4.10
2023-02-03T22:19:18.616Z,4.20
2023-02-03T22:24:14.794Z,3.20
2023-02-03T22:26:41.752Z,3.80
2023-02-03T22:34:04.023Z,3.60
2023-02-03T22:36:31.317Z,3.10
2023-02-03T22:38:58.612Z,3.60
2023-02-03T22:41:25.560Z,3.90
2023-02-03T22:43:52.622Z,6.20
2023-02-03T22:46:22.895Z,4.50
2023-02-03T22:48:50.273Z,3.60
2023-02-03T22:51:17.329Z,3.70
2023-02-03T22:53:44.471Z,3.60
2023-02-03T22:56:11.445Z,3.60
2023-02-03T22:58:38.611Z,3.60
2023-02-03T23:03:33.476Z,3.60
2023-02-03T23:06:00.591Z,3.70
2023-02-03T23:08:27.724Z,3.70
2023-02-03T23:10:55.774Z,3.60
2023-02-03T23:13:23.530Z,3.60
2023-02-03T23:18:20.984Z,4.00
2023-02-03T23:20:50.334Z,3.60
2023-02-03T23:23:17.442Z,3.10
2023-02-03T23:25:45.491Z,4.70
2023-02-03T23:28:12.530Z,3.00
2023-02-03T23:33:08.029Z,3.60
2023-02-03T23:35:46.910Z,2.40
2023-02-03T23:38:15.864Z,3.60
2023-02-03T23:43:10.729Z,3.60
2023-02-03T23:45:37.726Z,2.20
2023-02-03T23:48:05.140Z,3.40
2023-02-03T23:55:27.471Z,4.30
